createdAt,value
2023-04-15T00:01:19.293Z,10.60
2023-04-15T00:03:48.548Z,10.60
2023-04-15T00:06:18.450Z,10.50
2023-04-15T00:08:46.993Z,10.60
2023-04-15T00:11:15.787Z,10.50
2023-04-15T00:13:44.470Z,10.50
2023-04-15T00:16:12.940Z,10.50
2023-04-15T00:18:41.415Z,10.50
2023-04-15T00:21:10.136Z,10.50
2023-04-15T00:23:39.842Z,10.50
2023-04-15T00:26:08.644Z,10.60
2023-04-15T00:28:36.996Z,10.50
2023-04-15T00:31:05.829Z,10.50
2023-04-15T00:33:34.707Z,10.60
2023-04-15T00:36:03.684Z,10.80
2023-04-15T00:38:32.040Z,10.50
2023-04-15T00:41:02.662Z,10.60
2023-04-15T00:43:31.056Z,10.60
2023-04-15T00:46:00.893Z,10.60
2023-04-15T00:48:30.093Z,10.50
2023-04-15T00:50:58.488Z,10.50
2023-04-15T00:53:26.815Z,10.60
2023-04-15T00:55:55.689Z,10.60
2023-04-15T00:58:25.727Z,10.60
2023-04-15T01:00:54.477Z,10.50
2023-04-15T01:03:23.128Z,10.60
2023-04-15T01:05:53.030Z,10.50
2023-04-15T01:08:21.398Z,10.50
2023-04-15T01:10:49.975Z,10.50
2023-04-15T01:13:18.382Z,10.50
2023-04-15T01:15:48.609Z,10.50
2023-04-15T01:18:20.331Z,10.50
2023-04-15T01:20:48.658Z,10.50
2023-04-15T01:23:18.083Z,10.40
2023-04-15T01:25:49.426Z,10.40
2023-04-15T01:28:18.353Z,10.40
2023-04-15T01:30:46.788Z,10.40
2023-04-15T01:33:16.446Z,10.40
2023-04-15T01:35:45.203Z,10.40
2023-04-15T01:38:14.072Z,10.40
2023-04-15T01:40:42.353Z,10.40
2023-04-15T01:43:12.114Z,10.40
2023-04-15T01:45:40.869Z,10.40
2023-04-15T01:48:09.866Z,10.40
2023-04-15T01:50:39.858Z,10.40
2023-04-15T01:53:08.648Z,10.40
2023-04-15T01:55:37.089Z,10.40
2023-04-15T01:58:05.556Z,10.40
2023-04-15T02:00:36.358Z,10.60
2023-04-15T02:03:05.318Z,10.40
2023-04-15T02:05:33.908Z,10.40
2023-04-15T02:08:02.543Z,10.40
2023-04-15T02:10:31.189Z,10.50
2023-04-15T02:13:00.415Z,10.40
2023-04-15T02:15:30.632Z,10.40
2023-04-15T02:18:01.169Z,10.40
2023-04-15T02:20:30.746Z,10.40
2023-04-15T02:22:59.860Z,10.40
2023-04-15T02:25:28.232Z,10.40
2023-04-15T02:27:59.159Z,10.40
2023-04-15T02:30:27.519Z,10.40
2023-04-15T02:32:56.165Z,10.60
2023-04-15T02:35:28.422Z,10.40
2023-04-15T02:37:57.318Z,10.40
2023-04-15T02:40:26.020Z,10.40
2023-04-15T02:42:54.434Z,10.40
2023-04-15T02:45:25.930Z,10.40
2023-04-15T02:47:54.418Z,10.40
2023-04-15T02:50:23.677Z,10.40
2023-04-15T02:52:53.466Z,10.40
2023-04-15T02:55:22.654Z,10.40
2023-04-15T02:57:51.183Z,10.40
2023-04-15T03:00:19.616Z,10.40
2023-04-15T03:02:52.513Z,10.40
2023-04-15T03:05:21.119Z,10.70
2023-04-15T03:07:53.930Z,10.40
2023-04-15T03:10:23.435Z,10.40
2023-04-15T03:12:51.850Z,10.40
2023-04-15T03:15:23.162Z,10.40
2023-04-15T03:17:54.162Z,10.40
2023-04-15T03:20:22.781Z,10.40
2023-04-15T03:22:51.188Z,10.40
2023-04-15T03:25:23.042Z,10.50
2023-04-15T03:27:51.412Z,10.40
2023-04-15T03:30:19.783Z,10.40
2023-04-15T03:32:48.233Z,10.50
2023-04-15T03:35:17.206Z,10.50
2023-04-15T03:37:45.696Z,10.50
2023-04-15T03:40:14.657Z,10.50
2023-04-15T03:42:44.539Z,10.50
2023-04-15T03:45:13.292Z,10.50
2023-04-15T03:47:41.693Z,10.50
2023-04-15T03:50:10.341Z,10.50
2023-04-15T03:52:38.749Z,10.50
2023-04-15T03:55:08.482Z,10.50
2023-04-15T03:57:39.077Z,10.50
2023-04-15T04:00:11.010Z,10.50
2023-04-15T04:02:42.266Z,10.50
2023-04-15T04:05:11.315Z,10.50
2023-04-15T04:07:39.712Z,11.20
2023-04-15T04:10:09.401Z,10.50
2023-04-15T04:12:37.878Z,10.50
2023-04-15T04:15:09.363Z,10.50
2023-04-15T04:17:37.900Z,10.50
2023-04-15T04:20:08.133Z,10.80
2023-04-15T04:22:39.819Z,10.50
2023-04-15T04:25:10.191Z,10.50
2023-04-15T04:27:38.941Z,10.60
2023-04-15T04:30:10.343Z,10.50
2023-04-15T04:32:38.861Z,10.50
2023-04-15T04:35:07.815Z,10.50
2023-04-15T04:37:36.240Z,10.60
2023-04-15T04:40:05.692Z,10.50
2023-04-15T04:42:34.100Z,10.60
2023-04-15T04:45:02.515Z,10.50
2023-04-15T04:47:32.272Z,10.50
2023-04-15T04:50:00.669Z,10.50
2023-04-15T04:52:29.064Z,10.70
2023-04-15T04:54:57.372Z,10.60
2023-04-15T04:57:25.701Z,10.60
2023-04-15T04:59:54.065Z,10.60
2023-04-15T05:02:22.703Z,10.60
2023-04-15T05:04:54.467Z,10.60
2023-04-15T05:07:23.037Z,10.60
2023-04-15T05:09:51.555Z,11.20
2023-04-15T05:12:19.922Z,10.60
2023-04-15T05:14:48.304Z,10.80
2023-04-15T05:17:17.196Z,10.60
2023-04-15T05:19:45.469Z,10.70
2023-04-15T05:22:15.587Z,10.60
2023-04-15T05:24:43.903Z,10.60
2023-04-15T05:27:12.477Z,10.60
2023-04-15T05:29:40.911Z,10.60
2023-04-15T05:32:09.254Z,10.70
2023-04-15T05:34:37.664Z,10.60
2023-04-15T05:37:06.134Z,10.70
2023-04-15T05:39:36.149Z,10.70
2023-04-15T05:42:06.083Z,10.70
2023-04-15T05:44:34.557Z,10.60
2023-04-15T05:47:03.618Z,10.70
2023-04-15T05:49:32.014Z,10.60
2023-04-15T05:52:00.847Z,10.70
2023-04-15T05:54:29.233Z,10.70
2023-04-15T05:56:59.415Z,10.70
2023-04-15T05:59:28.442Z,10.70
2023-04-15T06:01:57.212Z,10.70
2023-04-15T06:04:25.775Z,10.70
2023-04-15T06:06:54.350Z,10.70
2023-04-15T06:09:22.952Z,10.70
2023-04-15T06:11:51.289Z,10.80
2023-04-15T06:14:21.090Z,10.80
2023-04-15T06:16:49.438Z,10.80
2023-04-15T06:19:18.442Z,10.80
2023-04-15T06:21:46.951Z,10.80
2023-04-15T06:24:15.469Z,10.90
2023-04-15T06:26:43.811Z,10.90
2023-04-15T06:29:12.190Z,10.90
2023-04-15T06:31:41.979Z,11.10
2023-04-15T06:34:11.170Z,10.90
2023-04-15T06:36:39.569Z,10.90
2023-04-15T06:39:08.031Z,10.90
2023-04-15T06:41:37.510Z,10.90
2023-04-15T06:44:06.602Z,10.90
2023-04-15T06:46:35.120Z,10.90
2023-04-15T06:49:05.484Z,11.00
2023-04-15T06:51:34.148Z,11.00
2023-04-15T06:54:02.681Z,11.00
2023-04-15T06:56:31.592Z,11.00
2023-04-15T06:59:00.440Z,11.00
2023-04-15T07:01:29.579Z,11.00
2023-04-15T07:03:58.460Z,11.90
2023-04-15T07:06:28.609Z,11.10
2023-04-15T07:08:57.537Z,11.10
2023-04-15T07:11:27.670Z,11.10
2023-04-15T07:13:56.330Z,11.10
2023-04-15T07:16:25.763Z,11.10
2023-04-15T07:18:55.909Z,11.20
2023-04-15T07:21:25.204Z,11.20
2023-04-15T07:23:55.049Z,11.20
2023-04-15T07:26:23.620Z,11.20
2023-04-15T07:28:52.277Z,11.20
2023-04-15T07:31:20.954Z,11.20
2023-04-15T07:33:49.612Z,11.30
2023-04-15T07:36:18.155Z,11.30
2023-04-15T07:38:46.767Z,11.30
2023-04-15T07:41:16.766Z,11.30
2023-04-15T07:43:45.369Z,11.30
2023-04-15T07:46:13.840Z,11.30
2023-04-15T07:48:42.798Z,11.60
2023-04-15T07:51:13.160Z,11.40
2023-04-15T07:53:42.481Z,11.40
2023-04-15T07:56:11.527Z,11.40
2023-04-15T07:58:41.490Z,11.40
2023-04-15T08:01:10.079Z,11.40
2023-04-15T08:03:39.522Z,11.50
2023-04-15T08:06:08.325Z,11.50
2023-04-15T08:08:36.791Z,11.50
2023-04-15T08:11:05.483Z,11.80
2023-04-15T08:13:33.895Z,11.60
2023-04-15T08:16:22.635Z,11.60
2023-04-15T08:18:53.009Z,11.60
2023-04-15T08:21:22.842Z,11.70
2023-04-15T08:23:53.784Z,11.70
2023-04-15T08:26:22.937Z,11.70
2023-04-15T08:28:51.626Z,12.20
2023-04-15T08:31:22.083Z,11.80
2023-04-15T08:33:52.119Z,11.80
2023-04-15T08:36:22.106Z,11.80
2023-04-15T08:38:50.425Z,11.90
2023-04-15T08:41:24.070Z,11.80
2023-04-15T08:43:58.971Z,11.90
2023-04-15T08:46:29.171Z,11.90
2023-04-15T08:49:00.340Z,11.90
2023-04-15T08:51:30.302Z,12.00
2023-04-15T08:53:59.020Z,12.00
2023-04-15T08:56:28.080Z,12.00
2023-04-15T08:58:57.099Z,12.00
2023-04-15T09:01:26.173Z,12.10
2023-04-15T09:03:56.538Z,12.10
2023-04-15T09:06:25.775Z,12.10
2023-04-15T09:08:54.530Z,12.10
2023-04-15T09:11:24.850Z,12.20
2023-04-15T09:13:53.296Z,12.20
2023-04-15T09:16:21.694Z,12.20
2023-04-15T09:18:50.051Z,12.20
2023-04-15T09:21:20.472Z,12.30
2023-04-15T09:24:00.648Z,12.40
2023-04-15T09:26:35.127Z,12.30
2023-04-15T09:29:09.279Z,12.40
2023-04-15T09:31:38.537Z,12.40
2023-04-15T09:34:07.890Z,12.40
2023-04-15T09:36:57.019Z,12.40
2023-04-15T09:39:25.452Z,12.40
2023-04-15T09:42:08.052Z,12.40
2023-04-15T09:44:36.760Z,12.40
2023-04-15T09:47:05.606Z,12.50
2023-04-15T09:49:34.290Z,12.50
2023-04-15T09:52:06.322Z,12.50
2023-04-15T09:54:37.070Z,12.50
2023-04-15T09:57:10.381Z,12.70
2023-04-15T09:59:39.016Z,12.50
2023-04-15T10:02:08.400Z,12.50
2023-04-15T10:04:41.750Z,12.50
2023-04-15T10:07:13.169Z,12.60
2023-04-15T10:09:41.771Z,12.60
2023-04-15T10:12:10.985Z,12.60
2023-04-15T10:14:40.132Z,12.70
2023-04-15T10:17:12.580Z,12.70
2023-04-15T10:19:41.901Z,12.70
2023-04-15T10:22:11.967Z,12.70
2023-04-15T10:24:41.585Z,12.80
2023-04-15T10:27:11.126Z,12.80
2023-04-15T10:29:39.970Z,12.80
2023-04-15T10:32:09.481Z,12.80
2023-04-15T10:34:39.050Z,12.80
2023-04-15T10:37:12.533Z,12.80
2023-04-15T10:39:44.461Z,12.80
2023-04-15T10:42:15.405Z,12.90
2023-04-15T10:44:45.872Z,12.90
2023-04-15T10:47:18.713Z,12.90
2023-04-15T10:49:52.470Z,13.10
2023-04-15T10:52:26.218Z,13.10
2023-04-15T10:55:05.449Z,12.90
2023-04-15T10:57:39.706Z,12.90
2023-04-15T11:00:16.544Z,13.10
2023-04-15T11:02:48.416Z,13.00
2023-04-15T11:05:17.839Z,13.10
2023-04-15T11:07:57.540Z,13.00
2023-04-15T11:10:54.322Z,13.00
2023-04-15T11:13:33.202Z,13.10
2023-04-15T11:16:03.419Z,13.10
2023-04-15T11:18:34.824Z,13.10
2023-04-15T11:21:06.408Z,13.30
2023-04-15T11:23:40.154Z,13.10
2023-04-15T11:26:12.339Z,13.20
2023-04-15T11:28:42.726Z,13.20
2023-04-15T11:31:13.417Z,13.20
2023-04-15T11:33:48.824Z,13.20
2023-04-15T11:36:17.226Z,13.20
2023-04-15T11:38:48.640Z,13.30
2023-04-15T11:41:22.013Z,13.30
2023-04-15T11:43:50.576Z,13.60
2023-04-15T11:46:19.204Z,13.30
2023-04-15T11:48:48.305Z,13.40
2023-04-15T11:51:16.840Z,13.40
2023-04-15T11:53:48.307Z,13.40
2023-04-15T11:56:21.263Z,13.50
2023-04-15T11:58:53.115Z,13.70
2023-04-15T12:01:21.747Z,13.50
2023-04-15T12:03:50.958Z,13.70
2023-04-15T12:06:21.792Z,13.50
2023-04-15T12:09:05.287Z,13.50
2023-04-15T12:11:38.205Z,13.70
2023-04-15T12:14:11.215Z,13.60
2023-04-15T12:16:48.947Z,13.60
2023-04-15T12:19:24.385Z,13.60
2023-04-15T12:21:55.291Z,13.60
2023-04-15T12:24:25.252Z,13.70
2023-04-15T12:26:57.342Z,13.70
2023-04-15T12:29:29.313Z,13.70
2023-04-15T12:31:59.532Z,13.70
2023-04-15T12:34:30.476Z,13.80
2023-04-15T12:37:00.662Z,13.80
2023-04-15T12:39:32.767Z,13.80
2023-04-15T12:42:01.768Z,13.80
2023-04-15T12:44:30.756Z,13.80
2023-04-15T12:47:00.190Z,13.90
2023-04-15T12:49:29.232Z,13.90
2023-04-15T12:52:01.356Z,14.00
2023-04-15T12:54:32.644Z,13.90
2023-04-15T12:57:02.500Z,14.10
2023-04-15T12:59:32.220Z,14.50
2023-04-15T13:02:02.898Z,14.10
2023-04-15T13:04:31.828Z,14.70
2023-04-15T13:07:00.467Z,14.20
2023-04-15T13:09:30.198Z,14.00
2023-04-15T13:11:58.582Z,14.30
2023-04-15T13:14:27.158Z,14.30
2023-04-15T13:16:55.643Z,14.50
2023-04-15T13:19:24.172Z,14.40
2023-04-15T13:21:52.615Z,14.50
2023-04-15T13:24:21.023Z,14.40
2023-04-15T13:26:50.759Z,14.50
2023-04-15T13:29:19.080Z,14.50
2023-04-15T13:31:47.487Z,14.60
2023-04-15T13:34:15.776Z,14.60
2023-04-15T13:36:44.304Z,14.60
2023-04-15T13:39:12.686Z,14.60
2023-04-15T13:41:41.819Z,14.70
2023-04-15T13:44:12.381Z,14.70
2023-04-15T13:46:41.972Z,14.80
2023-04-15T13:49:10.289Z,14.70
2023-04-15T13:51:38.592Z,14.90
2023-04-15T13:54:07.152Z,14.70
2023-04-15T13:56:36.029Z,14.70
2023-04-15T13:59:04.445Z,14.80
2023-04-15T14:01:34.340Z,14.80
2023-04-15T14:04:03.037Z,15.10
2023-04-15T14:06:32.254Z,14.80
2023-04-15T14:09:00.704Z,14.80
2023-04-15T14:11:30.055Z,14.80
2023-04-15T14:13:58.415Z,14.90
2023-04-15T14:16:27.029Z,14.90
2023-04-15T14:18:56.858Z,14.80
2023-04-15T14:21:26.385Z,14.90
2023-04-15T14:23:54.847Z,14.90
2023-04-15T14:26:23.235Z,14.90
2023-04-15T14:28:52.022Z,14.90
2023-04-15T14:31:21.082Z,14.90
2023-04-15T14:33:49.477Z,15.10
2023-04-15T14:36:19.231Z,14.90
2023-04-15T14:38:48.629Z,14.90
2023-04-15T14:41:17.359Z,14.90
2023-04-15T14:43:45.708Z,15.20
2023-04-15T14:46:15.487Z,14.90
2023-04-15T14:48:44.190Z,14.90
2023-04-15T14:51:12.538Z,14.90
2023-04-15T14:53:42.336Z,14.90
2023-04-15T14:56:10.758Z,14.90
2023-04-15T14:58:39.068Z,14.90
2023-04-15T15:01:07.746Z,15.00
2023-04-15T15:03:36.360Z,14.90
2023-04-15T15:06:04.989Z,14.80
2023-04-15T15:08:33.387Z,14.80
2023-04-15T15:11:03.116Z,14.90
2023-04-15T15:13:31.446Z,14.80
2023-04-15T15:15:59.956Z,14.70
2023-04-15T15:18:28.386Z,14.70
2023-04-15T15:20:56.680Z,14.70
2023-04-15T15:23:25.086Z,14.70
2023-04-15T15:25:53.460Z,14.70
2023-04-15T15:28:23.177Z,14.60
2023-04-15T15:30:51.581Z,14.60
2023-04-15T15:33:20.795Z,14.60
2023-04-15T15:35:49.167Z,14.60
2023-04-15T15:38:17.719Z,14.50
2023-04-15T15:40:46.088Z,14.50
2023-04-15T15:43:14.411Z,14.70
2023-04-15T15:45:44.171Z,14.50
2023-04-15T15:48:12.576Z,14.40
2023-04-15T15:50:40.943Z,14.40
2023-04-15T15:53:11.369Z,14.40
2023-04-15T15:55:39.691Z,14.40
2023-04-15T15:58:07.957Z,14.40
2023-04-15T16:00:36.770Z,14.30
2023-04-15T16:03:07.847Z,14.30
2023-04-15T16:05:37.042Z,14.30
2023-04-15T16:08:05.903Z,14.30
2023-04-15T16:10:34.361Z,14.30
2023-04-15T16:13:02.947Z,14.20
2023-04-15T16:15:31.330Z,14.20
2023-04-15T16:17:59.672Z,14.20
2023-04-15T16:20:29.733Z,14.20
2023-04-15T16:22:59.078Z,14.20
2023-04-15T16:25:27.548Z,14.10
2023-04-15T16:28:03.530Z,14.10
2023-04-15T16:30:41.670Z,14.10
2023-04-15T16:33:10.932Z,14.10
2023-04-15T16:35:40.835Z,14.10
2023-04-15T16:38:09.198Z,14.10
2023-04-15T16:40:38.584Z,14.10
2023-04-15T16:43:07.464Z,14.10
2023-04-15T16:45:36.000Z,14.00
2023-04-15T16:48:04.504Z,14.00
2023-04-15T16:50:33.068Z,14.00
2023-04-15T16:53:02.844Z,14.00
2023-04-15T16:55:31.309Z,14.00
2023-04-15T16:58:02.156Z,13.90
2023-04-15T17:00:32.339Z,14.00
2023-04-15T17:03:01.772Z,13.90
2023-04-15T17:05:31.670Z,13.90
2023-04-15T17:08:00.223Z,13.90
2023-04-15T17:10:29.960Z,13.90
2023-04-15T17:12:59.292Z,13.90
2023-04-15T17:15:28.278Z,13.90
2023-04-15T17:17:56.658Z,13.80
2023-04-15T17:20:26.480Z,13.80
2023-04-15T17:22:54.893Z,13.80
2023-04-15T17:25:24.132Z,13.80
2023-04-15T17:27:53.741Z,13.80
2023-04-15T17:30:22.323Z,13.80
2023-04-15T17:32:52.384Z,13.70
2023-04-15T17:35:20.984Z,13.70
2023-04-15T17:37:49.356Z,13.70
2023-04-15T17:40:17.744Z,13.70
2023-04-15T17:42:46.197Z,13.70
2023-04-15T17:45:16.287Z,13.70
2023-04-15T17:47:44.788Z,13.70
2023-04-15T17:50:13.168Z,13.60
2023-04-15T17:52:41.666Z,13.60
2023-04-15T17:55:10.574Z,13.60
2023-04-15T17:57:38.848Z,13.60
2023-04-15T18:00:11.088Z,14.00
2023-04-15T18:02:43.550Z,13.50
2023-04-15T18:05:12.327Z,13.50
2023-04-15T18:07:40.861Z,13.40
2023-04-15T18:10:11.127Z,13.40
2023-04-15T18:12:39.644Z,13.40
2023-04-15T18:15:10.600Z,13.40
2023-04-15T18:17:39.052Z,13.30
2023-04-15T18:20:09.835Z,13.30
2023-04-15T18:22:38.241Z,13.30
2023-04-15T18:25:08.200Z,13.30
2023-04-15T18:27:39.334Z,13.30
2023-04-15T18:30:09.648Z,13.20
2023-04-15T18:32:38.456Z,13.20
2023-04-15T18:35:09.867Z,13.20
2023-04-15T18:37:38.285Z,13.20
2023-04-15T18:40:10.185Z,13.20
2023-04-15T18:42:38.596Z,13.20
2023-04-15T18:45:08.318Z,13.20
2023-04-15T18:47:36.748Z,13.20
2023-04-15T18:50:05.639Z,13.20
2023-04-15T18:52:35.486Z,13.10
2023-04-15T18:55:04.315Z,13.10
2023-04-15T18:57:36.117Z,13.10
2023-04-15T19:00:07.113Z,13.10
2023-04-15T19:02:35.647Z,13.00
2023-04-15T19:05:04.766Z,13.10
2023-04-15T19:07:34.831Z,13.00
2023-04-15T19:10:04.588Z,13.00
2023-04-15T19:12:33.157Z,13.00
2023-04-15T19:15:01.526Z,13.00
2023-04-15T19:17:29.958Z,12.90
2023-04-15T19:19:58.367Z,12.90
2023-04-15T19:22:29.539Z,13.10
2023-04-15T19:24:59.516Z,12.90
2023-04-15T19:27:28.645Z,12.90
2023-04-15T19:29:56.952Z,12.90
2023-04-15T19:32:25.467Z,13.20
2023-04-15T19:34:53.888Z,13.10
2023-04-15T19:37:22.222Z,12.90
2023-04-15T19:39:50.690Z,12.80
2023-04-15T19:42:20.434Z,12.80
2023-04-15T19:44:48.822Z,12.80
2023-04-15T19:47:17.274Z,12.70
2023-04-15T19:49:45.636Z,12.80
2023-04-15T19:52:14.274Z,13.00
2023-04-15T19:54:42.697Z,12.70
2023-04-15T19:57:11.048Z,12.60
2023-04-15T19:59:40.983Z,12.60
2023-04-15T20:02:09.707Z,12.60
2023-04-15T20:04:38.276Z,12.50
2023-04-15T20:07:06.698Z,12.60
2023-04-15T20:09:35.360Z,12.50
2023-04-15T20:12:46.637Z,12.50
2023-04-15T20:14:53.583Z,12.50
2023-04-15T20:17:21.994Z,12.50
2023-04-15T20:19:50.390Z,12.50
2023-04-15T20:22:18.802Z,12.40
2023-04-15T20:24:47.133Z,12.40
2023-04-15T20:27:15.575Z,12.40
2023-04-15T20:29:43.951Z,12.40
2023-04-15T20:32:13.733Z,12.40
2023-04-15T20:34:42.096Z,12.70
2023-04-15T20:37:11.418Z,12.30
2023-04-15T20:39:42.081Z,12.30
2023-04-15T20:42:10.598Z,12.30
2023-04-15T20:44:39.419Z,12.30
2023-04-15T20:47:08.244Z,12.20
2023-04-15T20:49:41.648Z,12.20
2023-04-15T20:52:10.822Z,12.20
2023-04-15T20:54:39.236Z,12.20
2023-04-15T20:57:07.623Z,12.20
2023-04-15T20:59:36.150Z,12.20
2023-04-15T21:02:04.774Z,12.10
2023-04-15T21:04:33.179Z,12.10
2023-04-15T21:07:02.852Z,12.10
2023-04-15T21:09:31.361Z,12.10
2023-04-15T21:12:01.130Z,12.10
2023-04-15T21:14:30.199Z,12.10
2023-04-15T21:16:59.112Z,12.10
2023-04-15T21:19:27.483Z,12.00
2023-04-15T21:21:55.841Z,12.00
2023-04-15T21:24:25.848Z,12.40
2023-04-15T21:26:54.335Z,12.00
2023-04-15T21:29:22.667Z,12.00
2023-04-15T21:31:51.306Z,12.00
2023-04-15T21:34:19.702Z,11.90
2023-04-15T21:36:47.998Z,11.90
2023-04-15T21:39:17.148Z,11.90
2023-04-15T21:41:46.905Z,11.90
2023-04-15T21:44:15.526Z,12.40
2023-04-15T21:46:46.142Z,11.90
2023-04-15T21:49:14.707Z,11.80
2023-04-15T21:51:43.094Z,11.80
2023-04-15T21:54:11.491Z,11.80
2023-04-15T21:56:39.834Z,12.00
2023-04-15T21:59:09.578Z,12.70
2023-04-15T22:01:38.087Z,11.80
2023-04-15T22:04:07.559Z,11.80
2023-04-15T22:06:36.160Z,11.80
2023-04-15T22:09:04.745Z,11.80
2023-04-15T22:11:33.090Z,11.80
2023-04-15T22:14:01.460Z,11.70
2023-04-15T22:16:31.366Z,11.70
2023-04-15T22:18:59.722Z,11.70
2023-04-15T22:21:28.152Z,11.70
2023-04-15T22:24:33.160Z,11.70
2023-04-15T22:26:44.956Z,11.70
2023-04-15T22:29:13.376Z,11.70
2023-04-15T22:31:43.817Z,11.60
2023-04-15T22:34:14.661Z,11.70
2023-04-15T22:36:43.124Z,11.90
2023-04-15T22:39:11.452Z,11.60
2023-04-15T22:41:39.827Z,11.60
2023-04-15T22:44:08.255Z,11.60
2023-04-15T22:46:36.692Z,11.60
2023-04-15T22:49:09.379Z,11.60
2023-04-15T22:51:38.323Z,11.60
2023-04-15T22:54:06.694Z,11.60
2023-04-15T22:56:35.108Z,11.50
2023-04-15T22:59:03.489Z,11.60
2023-04-15T23:01:32.406Z,11.50
2023-04-15T23:04:05.964Z,11.50
2023-04-15T23:06:41.176Z,11.50
2023-04-15T23:09:09.829Z,11.50
2023-04-15T23:11:38.551Z,11.50
2023-04-15T23:14:07.177Z,11.50
2023-04-15T23:16:35.832Z,11.40
2023-04-15T23:19:04.424Z,11.40
2023-04-15T23:21:33.083Z,11.40
2023-04-15T23:24:02.946Z,11.40
2023-04-15T23:26:31.535Z,11.40
2023-04-15T23:29:00.113Z,11.40
2023-04-15T23:31:28.541Z,11.40
2023-04-15T23:33:56.939Z,11.40
2023-04-15T23:36:25.353Z,11.30
2023-04-15T23:38:53.693Z,11.90
2023-04-15T23:41:23.444Z,11.30
2023-04-15T23:43:51.866Z,11.30
2023-04-15T23:46:20.233Z,11.30
2023-04-15T23:48:49.161Z,11.30
2023-04-15T23:51:18.216Z,11.20
2023-04-15T23:53:46.777Z,11.20
2023-04-15T23:56:15.131Z,11.80
2023-04-15T23:58:45.646Z,11.30
